Time;durP1;ratioP1;P1;durP2;ratioP2;P2;SDS_P1;SDS_P2;PMS_P1;PMS_P2;Temp;Humidity;BMP_temperature;BMP_pressure;BME280_temperature;BME280_humidity;BME280_pressure;Samples;Min_cycle;Max_cycle;Signal;HPM_P1;HPM_P2
2023/05/29 00:01:35;;;;;;;0.10;0.10;;;17.90;99.90;;;;;;5071525;28;20199;-80
2023/05/29 00:04:01;;;;;;;0.10;0.10;;;17.80;99.90;;;;;;5073314;28;20200;-81
2023/05/29 00:06:33;;;;;;;0.10;0.10;;;17.80;99.90;;;;;;5071174;28;20615;-82
2023/05/29 00:08:59;;;;;;;0.10;0.10;;;17.70;99.90;;;;;;5058286;28;20183;-82
2023/05/29 00:11:25;;;;;;;0.10;0.10;;;17.60;99.90;;;;;;5058136;28;20192;-81
2023/05/29 00:13:50;;;;;;;0.10;0.10;;;17.60;99.90;;;;;;5058321;28;20197;-81
2023/05/29 00:16:17;;;;;;;0.10;0.10;;;17.50;99.90;;;;;;5056092;28;20192;-81
2023/05/29 00:18:45;;;;;;;0.10;0.10;;;17.50;99.90;;;;;;5058346;28;20230;-81
2023/05/29 00:21:12;;;;;;;0.10;0.10;;;17.60;99.90;;;;;;5055310;28;20194;-81
2023/05/29 00:23:38;;;;;;;0.10;0.10;;;17.60;99.90;;;;;;5058882;28;20208;-82
2023/05/29 00:26:03;;;;;;;0.10;0.10;;;17.50;99.90;;;;;;5058571;28;20212;-82
2023/05/29 00:28:29;;;;;;;0.10;0.10;;;17.50;99.90;;;;;;5059677;28;20189;-81
2023/05/29 00:30:54;;;;;;;0.10;0.10;;;17.60;99.90;;;;;;5058025;28;20199;-81
2023/05/29 00:33:20;;;;;;;0.10;0.10;;;17.60;99.90;;;;;;5059293;28;20201;-81
2023/05/29 00:35:45;;;;;;;0.10;0.10;;;17.60;99.90;;;;;;5059902;28;20181;-81
2023/05/29 00:38:11;;;;;;;0.10;0.10;;;17.50;99.90;;;;;;5058716;28;20206;-81
2023/05/29 00:40:36;;;;;;;0.10;0.10;;;17.50;99.90;;;;;;5058445;28;20285;-81
2023/05/29 00:43:02;;;;;;;0.10;0.10;;;17.50;99.90;;;;;;5057858;28;20204;-82
2023/05/29 00:45:28;;;;;;;0.10;0.10;;;17.50;99.90;;;;;;5058657;28;20200;-82
2023/05/29 00:47:53;;;;;;;0.10;0.10;;;17.40;99.90;;;;;;5058449;28;20184;-81
2023/05/29 00:50:21;;;;;;;0.10;0.10;;;17.40;99.90;;;;;;5057085;28;20223;-81
2023/05/29 00:52:47;;;;;;;0.10;0.10;;;17.30;99.90;;;;;;5058658;28;20217;-82
2023/05/29 00:55:14;;;;;;;0.10;0.10;;;17.40;99.90;;;;;;5057075;28;20185;-81
2023/05/29 00:57:40;;;;;;;0.10;0.10;;;17.40;99.90;;;;;;5059023;28;20284;-81
2023/05/29 01:00:13;;;;;;;0.10;0.10;;;17.30;99.90;;;;;;5056636;28;20281;-81
2023/05/29 01:02:40;;;;;;;0.10;0.10;;;17.30;99.90;;;;;;5056795;28;20228;-81
2023/05/29 01:05:06;;;;;;;0.10;0.10;;;17.30;99.90;;;;;;5059659;28;20213;-81
2023/05/29 01:07:33;;;;;;;0.10;0.10;;;17.30;99.90;;;;;;5059078;28;20301;-82
2023/05/29 01:09:59;;;;;;;0.10;0.10;;;17.20;99.90;;;;;;5057915;28;20178;-81
2023/05/29 01:12:49;;;;;;;0.10;0.10;;;17.20;99.90;;;;;;5058466;28;20650;-81
2023/05/29 01:15:30;;;;;;;0.10;0.10;;;17.10;99.90;;;;;;5056905;28;20186;-82
2023/05/29 01:18:26;;;;;;;0.10;0.10;;;17.00;99.90;;;;;;5044677;28;20194;-81
2023/05/29 01:21:22;;;;;;;0.10;0.10;;;17.00;99.90;;;;;;5040663;28;20443;-81
2023/05/29 01:24:02;;;;;;;0.10;0.10;;;16.90;99.90;;;;;;5045866;28;20764;-81
2023/05/29 01:26:51;;;;;;;0.10;0.10;;;16.90;99.90;;;;;;5043415;28;20212;-81
2023/05/29 01:29:31;;;;;;;0.10;0.10;;;16.90;99.90;;;;;;5041883;28;20181;-83
2023/05/29 01:31:57;;;;;;;0.10;0.10;;;16.80;99.90;;;;;;5042026;28;20324;-82
2023/05/29 01:34:23;;;;;;;0.10;0.10;;;16.80;99.90;;;;;;5044057;28;20223;-82
2023/05/29 01:36:49;;;;;;;0.10;0.10;;;16.70;99.90;;;;;;5045611;28;20193;-82
2023/05/29 01:39:15;;;;;;;0.10;0.10;;;16.70;99.90;;;;;;5045080;28;20178;-82
2023/05/29 01:41:45;;;;;;;0.10;0.10;;;16.60;99.90;;;;;;5045077;28;20276;-82
2023/05/29 01:44:12;;;;;;;0.10;0.10;;;16.60;99.90;;;;;;5043805;28;20209;-82
2023/05/29 01:46:39;;;;;;;0.10;0.10;;;16.50;99.90;;;;;;5044230;28;20190;-82
2023/05/29 01:49:05;;;;;;;0.10;0.10;;;16.50;99.90;;;;;;5044854;28;20188;-83
2023/05/29 01:51:31;;;;;;;0.10;0.10;;;16.40;99.90;;;;;;5044465;28;20217;-82
2023/05/29 01:53:58;;;;;;;0.10;0.10;;;16.40;99.90;;;;;;5044670;28;20263;-83
2023/05/29 01:56:26;;;;;;;0.10;0.10;;;16.40;99.90;;;;;;5043781;28;20276;-82
2023/05/29 01:58:52;;;;;;;0.20;0.20;;;16.40;99.90;;;;;;5041842;28;20235;-82
2023/05/29 02:01:20;;;;;;;0.10;0.10;;;16.30;99.90;;;;;;5043745;28;20189;-82
2023/05/29 02:03:46;;;;;;;0.10;0.10;;;16.20;99.90;;;;;;5043913;28;20213;-82
2023/05/29 02:06:11;;;;;;;0.10;0.10;;;16.20;99.90;;;;;;5043022;28;20267;-82
2023/05/29 02:08:37;;;;;;;0.10;0.10;;;16.30;99.90;;;;;;5044302;28;20185;-82
2023/05/29 02:11:02;;;;;;;0.10;0.10;;;16.20;99.90;;;;;;5041322;28;20198;-82
2023/05/29 02:13:28;;;;;;;0.10;0.10;;;16.20;99.90;;;;;;5044721;28;20216;-82
2023/05/29 02:15:53;;;;;;;0.10;0.10;;;16.30;99.90;;;;;;5044225;28;20570;-82
2023/05/29 02:18:19;;;;;;;0.10;0.10;;;16.30;99.90;;;;;;5045350;28;20212;-82
2023/05/29 02:20:44;;;;;;;0.10;0.10;;;16.20;99.90;;;;;;5044256;28;20189;-83
2023/05/29 02:23:10;;;;;;;0.10;0.10;;;16.20;99.90;;;;;;5042908;28;20208;-83
2023/05/29 02:25:36;;;;;;;0.10;0.10;;;16.20;99.90;;;;;;5041519;28;20324;-83
2023/05/29 02:28:02;;;;;;;0.10;0.10;;;16.00;99.90;;;;;;5044573;28;20186;-82
2023/05/29 02:30:28;;;;;;;0.10;0.10;;;15.80;99.90;;;;;;5042539;28;20541;-82
2023/05/29 02:32:54;;;;;;;0.10;0.10;;;15.70;99.90;;;;;;5045215;28;20276;-82
2023/05/29 02:35:22;;;;;;;0.10;0.10;;;15.60;99.90;;;;;;5042179;28;20272;-82
2023/05/29 02:37:48;;;;;;;0.10;0.10;;;15.60;99.90;;;;;;5042929;28;20182;-82
2023/05/29 02:40:13;;;;;;;0.10;0.10;;;15.60;99.90;;;;;;5043655;28;20216;-82
2023/05/29 02:42:39;;;;;;;0.10;0.10;;;15.50;99.90;;;;;;5041438;28;20209;-82
2023/05/29 02:45:05;;;;;;;0.10;0.10;;;15.50;99.90;;;;;;5042905;28;20214;-83
2023/05/29 02:47:31;;;;;;;0.10;0.10;;;15.50;99.90;;;;;;5042799;28;20281;-81
2023/05/29 02:49:56;;;;;;;0.10;0.10;;;15.40;99.90;;;;;;5044942;28;20252;-82
2023/05/29 02:52:22;;;;;;;0.07;0.07;;;15.40;99.90;;;;;;5041828;28;20603;-82
2023/05/29 02:54:48;;;;;;;0.10;0.10;;;15.30;99.90;;;;;;5040421;28;20196;-82
2023/05/29 02:57:14;;;;;;;0.10;0.10;;;15.40;99.90;;;;;;5042193;28;20185;-82
2023/05/29 02:59:39;;;;;;;0.10;0.10;;;15.40;99.90;;;;;;5042514;28;20193;-82
2023/05/29 03:02:05;;;;;;;0.10;0.10;;;15.30;99.90;;;;;;5039792;28;20601;-82
2023/05/29 03:04:31;;;;;;;0.10;0.10;;;15.30;99.90;;;;;;5040860;28;20296;-82
2023/05/29 03:06:56;;;;;;;0.10;0.10;;;15.20;99.90;;;;;;5041812;28;20208;-82
2023/05/29 03:09:22;;;;;;;0.10;0.10;;;15.20;99.90;;;;;;5044220;28;20189;-82
2023/05/29 03:11:49;;;;;;;0.10;0.10;;;15.20;99.90;;;;;;5042682;28;20231;-82
2023/05/29 03:14:15;;;;;;;0.10;0.10;;;15.10;99.90;;;;;;5042430;28;20236;-82
2023/05/29 03:16:40;;;;;;;0.10;0.10;;;15.10;99.90;;;;;;5040057;28;20216;-82
2023/05/29 03:19:07;;;;;;;0.10;0.10;;;15.00;99.90;;;;;;5042783;28;20239;-82
2023/05/29 03:21:33;;;;;;;0.10;0.10;;;15.10;99.90;;;;;;5040767;28;20182;-82
2023/05/29 03:23:59;;;;;;;0.10;0.10;;;15.00;99.90;;;;;;5040696;28;20198;-82
2023/05/29 03:26:25;;;;;;;0.10;0.10;;;14.90;99.90;;;;;;5041280;28;20208;-82
2023/05/29 03:28:51;;;;;;;0.10;0.10;;;14.90;99.90;;;;;;5044299;28;20638;-83
2023/05/29 03:31:19;;;;;;;0.10;0.10;;;14.90;99.90;;;;;;5042328;28;20193;-83
2023/05/29 03:33:45;;;;;;;0.10;0.10;;;15.00;99.90;;;;;;5040216;28;20212;-83
2023/05/29 03:36:11;;;;;;;0.10;0.10;;;15.00;99.90;;;;;;5041532;28;20622;-83
2023/05/29 03:38:36;;;;;;;0.10;0.10;;;15.00;99.90;;;;;;5040806;28;20189;-83
2023/05/29 03:41:02;;;;;;;0.10;0.10;;;14.90;99.90;;;;;;5039495;28;20702;-83
2023/05/29 03:43:27;;;;;;;0.10;0.10;;;15.10;99.90;;;;;;5042831;28;20205;-83
2023/05/29 03:45:53;;;;;;;0.03;0.03;;;15.40;99.90;;;;;;5045180;28;20208;-83
2023/05/29 03:48:18;;;;;;;0.00;0.00;;;15.60;99.90;;;;;;5047300;28;20656;-82
2023/05/29 03:50:45;;;;;;;0.10;0.10;;;15.90;99.90;;;;;;5045021;28;20314;-82
2023/05/29 03:53:11;;;;;;;0.10;0.10;;;16.30;99.90;;;;;;5045314;28;20616;-83
2023/05/29 03:55:36;;;;;;;0.07;0.07;;;16.50;99.90;;;;;;5043534;28;20190;-83
2023/05/29 03:58:02;;;;;;;0.10;0.10;;;16.60;99.90;;;;;;5044976;28;20182;-82
2023/05/29 04:00:27;;;;;;;0.20;0.20;;;16.70;99.90;;;;;;5043850;28;20638;-82
2023/05/29 04:02:55;;;;;;;0.10;0.10;;;17.00;99.90;;;;;;5044147;28;20213;-83
2023/05/29 04:05:21;;;;;;;0.10;0.10;;;17.10;99.90;;;;;;5042938;28;20251;-83
2023/05/29 04:07:46;;;;;;;0.13;0.13;;;17.30;99.90;;;;;;5039904;28;20182;-83
2023/05/29 04:10:12;;;;;;;0.10;0.10;;;17.40;99.90;;;;;;5043711;28;20223;-83
2023/05/29 04:12:38;;;;;;;0.10;0.10;;;17.80;99.90;;;;;;5043045;28;20251;-83
2023/05/29 04:15:04;;;;;;;0.10;0.10;;;18.00;99.90;;;;;;5041876;28;20198;-83
2023/05/29 04:17:30;;;;;;;0.10;0.10;;;17.90;99.90;;;;;;5041671;28;20604;-83
2023/05/29 04:19:55;;;;;;;0.10;0.10;;;17.40;99.90;;;;;;5042331;28;20251;-83
2023/05/29 04:22:21;;;;;;;0.10;0.10;;;17.10;99.90;;;;;;5043751;28;20185;-82
2023/05/29 04:24:46;;;;;;;0.10;0.10;;;17.00;99.90;;;;;;5043178;28;20239;-82
2023/05/29 04:27:14;;;;;;;0.10;0.10;;;16.70;99.90;;;;;;5041615;28;21132;-83
2023/05/29 04:29:42;;;;;;;0.10;0.10;;;16.80;99.90;;;;;;5042473;28;20193;-82
2023/05/29 04:32:09;;;;;;;0.10;0.10;;;16.70;99.90;;;;;;5040709;28;20329;-83
2023/05/29 04:34:35;;;;;;;0.10;0.10;;;16.80;99.90;;;;;;5041225;28;20217;-83
2023/05/29 04:37:03;;;;;;;0.10;0.10;;;16.70;99.90;;;;;;5041660;28;21200;-83
2023/05/29 04:39:29;;;;;;;0.10;0.10;;;16.80;99.90;;;;;;5040161;28;20189;-82
2023/05/29 04:41:56;;;;;;;0.10;0.10;;;16.80;99.90;;;;;;5039647;28;20558;-82
2023/05/29 04:44:22;;;;;;;0.10;0.10;;;16.90;99.90;;;;;;5040511;28;21036;-83
2023/05/29 04:46:48;;;;;;;0.10;0.10;;;16.90;99.90;;;;;;5040397;28;20242;-83
2023/05/29 04:49:14;;;;;;;0.10;0.10;;;17.00;99.90;;;;;;5040846;28;20192;-83
2023/05/29 04:51:42;;;;;;;0.10;0.10;;;17.20;99.90;;;;;;5040550;28;20194;-82
2023/05/29 04:54:11;;;;;;;0.10;0.10;;;17.00;99.90;;;;;;5049814;28;20201;-82
2023/05/29 04:56:39;;;;;;;0.10;0.10;;;17.10;99.90;;;;;;5050731;28;20200;-82
2023/05/29 04:59:06;;;;;;;0.10;0.10;;;16.90;99.90;;;;;;5051689;28;20192;-82
2023/05/29 05:01:33;;;;;;;0.10;0.10;;;16.90;99.90;;;;;;5047821;28;20201;-82
2023/05/29 05:03:59;;;;;;;0.10;0.10;;;17.00;99.90;;;;;;5047689;28;20216;-82
2023/05/29 05:06:26;;;;;;;0.10;0.10;;;17.10;99.90;;;;;;5043632;28;20296;-82
2023/05/29 05:08:52;;;;;;;0.10;0.10;;;17.00;99.90;;;;;;5047445;28;20551;-83
2023/05/29 05:11:18;;;;;;;0.10;0.10;;;17.00;99.90;;;;;;5044183;28;20704;-83
2023/05/29 05:13:44;;;;;;;0.10;0.10;;;16.80;99.90;;;;;;5045793;28;20194;-83
2023/05/29 05:16:10;;;;;;;0.10;0.10;;;16.80;99.90;;;;;;5041577;28;20229;-84
2023/05/29 05:18:36;;;;;;;0.10;0.10;;;16.80;99.90;;;;;;5044138;28;20747;-82
2023/05/29 05:21:03;;;;;;;0.10;0.10;;;16.90;99.90;;;;;;5041194;28;20227;-83
2023/05/29 05:23:29;;;;;;;0.10;0.10;;;16.90;99.90;;;;;;5044041;28;20202;-83
2023/05/29 05:25:55;;;;;;;0.10;0.10;;;17.00;99.90;;;;;;5042609;28;20276;-83
2023/05/29 05:28:21;;;;;;;0.10;0.10;;;17.00;99.90;;;;;;5040890;28;20197;-84
2023/05/29 05:30:46;;;;;;;0.10;0.10;;;16.90;99.90;;;;;;5045059;28;20217;-83
2023/05/29 05:33:12;;;;;;;0.10;0.10;;;16.90;99.90;;;;;;5049437;28;20232;-83
2023/05/29 05:35:38;;;;;;;0.10;0.10;;;16.90;99.90;;;;;;5042375;28;20247;-82
2023/05/29 05:38:03;;;;;;;0.10;0.10;;;16.90;99.90;;;;;;5041648;28;20262;-83
2023/05/29 05:40:29;;;;;;;0.10;0.10;;;17.10;99.90;;;;;;5040056;28;20192;-84
2023/05/29 05:42:55;;;;;;;0.10;0.10;;;17.10;99.90;;;;;;5043700;28;20204;-83
2023/05/29 05:45:20;;;;;;;0.10;0.10;;;17.20;99.90;;;;;;5040161;28;20212;-84
2023/05/29 05:47:46;;;;;;;0.10;0.10;;;17.10;99.90;;;;;;5042724;28;20213;-86
2023/05/29 05:50:12;;;;;;;0.10;0.10;;;17.30;99.90;;;;;;5043478;28;20196;-82
2023/05/29 05:52:38;;;;;;;0.43;0.43;;;17.20;99.90;;;;;;5042415;28;20201;-83
2023/05/29 05:55:04;;;;;;;0.10;0.10;;;17.40;99.90;;;;;;5040941;28;20753;-84
2023/05/29 05:57:32;;;;;;;0.10;0.10;;;17.30;99.90;;;;;;5042394;28;20197;-83
2023/05/29 05:59:59;;;;;;;0.10;0.10;;;17.60;99.90;;;;;;5042410;28;20196;-84
2023/05/29 06:02:25;;;;;;;0.10;0.10;;;17.70;99.90;;;;;;5040430;28;20685;-84
2023/05/29 06:04:51;;;;;;;0.10;0.10;;;17.80;99.90;;;;;;5041894;28;20209;-85
2023/05/29 06:07:17;;;;;;;0.10;0.10;;;17.80;99.90;;;;;;5042713;28;20182;-83
2023/05/29 06:09:43;;;;;;;0.10;0.10;;;17.80;99.90;;;;;;5043322;28;20612;-84
2023/05/29 06:12:09;;;;;;;0.10;0.10;;;17.90;99.90;;;;;;5041539;28;20182;-84
2023/05/29 06:14:34;;;;;;;0.10;0.10;;;18.00;99.90;;;;;;5036542;28;20871;-82
2023/05/29 06:17:01;;;;;;;0.10;0.10;;;17.90;99.90;;;;;;5039219;28;20177;-83
2023/05/29 06:19:26;;;;;;;0.10;0.10;;;18.00;99.90;;;;;;5041772;28;20324;-83
2023/05/29 06:21:52;;;;;;;0.10;0.10;;;18.00;99.90;;;;;;5041645;28;20181;-82
2023/05/29 06:24:17;;;;;;;0.10;0.10;;;18.10;99.90;;;;;;5043025;28;20197;-83
2023/05/29 06:26:43;;;;;;;0.10;0.10;;;18.30;99.90;;;;;;5042317;28;20216;-83
2023/05/29 06:29:08;;;;;;;0.10;0.10;;;18.60;99.90;;;;;;5032901;28;20235;-83
2023/05/29 06:31:34;;;;;;;0.10;0.10;;;18.80;99.90;;;;;;5040608;28;20287;-83
2023/05/29 06:34:00;;;;;;;0.10;0.10;;;18.90;99.90;;;;;;5041272;28;20223;-83
2023/05/29 06:36:25;;;;;;;0.10;0.10;;;19.00;99.90;;;;;;5043856;28;20190;-83
2023/05/29 06:38:51;;;;;;;0.10;0.10;;;19.10;99.90;;;;;;5040425;28;20200;-83
2023/05/29 06:41:17;;;;;;;0.10;0.10;;;19.10;99.90;;;;;;5041419;28;20722;-83
2023/05/29 06:43:43;;;;;;;0.10;0.10;;;19.10;99.90;;;;;;5041454;28;20207;-83
2023/05/29 06:46:09;;;;;;;0.10;0.10;;;19.30;99.90;;;;;;5038470;28;20219;-83
2023/05/29 06:48:35;;;;;;;0.10;0.10;;;19.40;99.90;;;;;;5040636;28;20188;-83
2023/05/29 06:51:03;;;;;;;0.10;0.10;;;19.60;99.90;;;;;;5042057;28;20256;-83
2023/05/29 06:53:28;;;;;;;0.10;0.10;;;19.60;99.90;;;;;;5044050;28;20248;-83
2023/05/29 06:55:54;;;;;;;0.10;0.10;;;19.80;99.90;;;;;;5038778;28;20658;-83
2023/05/29 06:58:19;;;;;;;0.10;0.10;;;19.60;99.90;;;;;;5035894;28;20268;-82
2023/05/29 07:00:45;;;;;;;0.10;0.10;;;19.80;99.90;;;;;;5033318;28;20269;-83
2023/05/29 07:03:10;;;;;;;0.10;0.10;;;19.90;99.90;;;;;;5042069;28;20209;-82
2023/05/29 07:05:36;;;;;;;0.10;0.10;;;19.70;99.90;;;;;;5044177;28;20742;-83
2023/05/29 07:08:02;;;;;;;0.10;0.10;;;19.70;99.90;;;;;;5041572;28;20174;-82
2023/05/29 07:10:27;;;;;;;0.10;0.10;;;20.00;99.90;;;;;;5040172;28;20243;-82
2023/05/29 07:12:53;;;;;;;0.10;0.10;;;20.10;99.90;;;;;;5043139;28;20204;-82
2023/05/29 07:15:18;;;;;;;0.10;0.10;;;20.30;99.90;;;;;;5043938;28;20235;-82
2023/05/29 07:17:44;;;;;;;0.10;0.10;;;20.30;99.90;;;;;;5039727;28;21100;-82
2023/05/29 07:20:10;;;;;;;0.10;0.10;;;20.50;99.90;;;;;;5040232;28;20206;-83
2023/05/29 07:22:36;;;;;;;0.10;0.10;;;20.70;99.90;;;;;;5039363;28;20217;-82
2023/05/29 07:25:03;;;;;;;0.10;0.10;;;20.60;99.90;;;;;;5040023;28;20204;-83
2023/05/29 07:27:28;;;;;;;0.10;0.10;;;20.80;99.90;;;;;;5039510;28;20189;-82
2023/05/29 07:29:54;;;;;;;0.10;0.10;;;20.80;99.90;;;;;;5046878;28;20185;-82
2023/05/29 07:32:21;;;;;;;0.10;0.10;;;20.90;99.90;;;;;;5045506;28;20184;-82
2023/05/29 07:34:49;;;;;;;0.10;0.10;;;20.90;99.90;;;;;;5035468;28;20190;-82
2023/05/29 07:37:15;;;;;;;0.10;0.10;;;21.10;99.90;;;;;;5047624;28;20553;-82
2023/05/29 07:39:41;;;;;;;0.10;0.10;;;21.30;99.90;;;;;;5043836;28;20197;-83
2023/05/29 07:42:06;;;;;;;0.10;0.10;;;21.40;99.90;;;;;;5043785;28;20235;-82
2023/05/29 07:44:32;;;;;;;0.10;0.10;;;21.60;99.90;;;;;;5044516;28;20205;-82
2023/05/29 07:46:57;;;;;;;0.10;0.10;;;21.30;99.90;;;;;;5044127;28;20180;-83
2023/05/29 07:49:23;;;;;;;0.10;0.10;;;21.60;99.90;;;;;;5045737;28;20260;-82
2023/05/29 07:51:48;;;;;;;0.10;0.10;;;21.30;99.90;;;;;;5042622;28;20209;-83
2023/05/29 07:54:17;;;;;;;0.10;0.10;;;21.40;99.90;;;;;;5044103;28;20250;-83
2023/05/29 07:56:43;;;;;;;0.10;0.10;;;21.70;99.90;;;;;;5043731;28;20184;-82
2023/05/29 07:59:09;;;;;;;1.13;1.13;;;22.00;99.90;;;;;;5042809;28;20185;-83
2023/05/29 08:01:36;;;;;;;0.10;0.10;;;21.80;99.90;;;;;;5043720;28;20193;-82
2023/05/29 08:04:02;;;;;;;0.10;0.10;;;22.00;99.90;;;;;;5043401;28;20225;-83
2023/05/29 08:06:27;;;;;;;0.10;0.10;;;22.10;99.90;;;;;;5042960;28;20667;-83
2023/05/29 08:08:53;;;;;;;0.10;0.10;;;22.30;99.90;;;;;;5044244;28;20537;-83
2023/05/29 08:11:19;;;;;;;0.10;0.10;;;22.30;99.90;;;;;;5042784;28;20174;-83
2023/05/29 08:13:44;;;;;;;0.10;0.10;;;22.10;99.90;;;;;;5037932;28;20679;-83
2023/05/29 08:16:10;;;;;;;0.10;0.10;;;22.00;99.90;;;;;;5038380;28;20194;-83
2023/05/29 08:18:36;;;;;;;0.10;0.10;;;22.40;99.90;;;;;;5037970;28;20197;-83
2023/05/29 08:21:02;;;;;;;0.10;0.10;;;22.30;99.90;;;;;;5037759;28;20236;-82
2023/05/29 08:23:27;;;;;;;0.10;0.10;;;22.30;99.90;;;;;;5038961;28;20741;-88
2023/05/29 08:25:53;;;;;;;0.10;0.10;;;22.40;99.90;;;;;;5041610;28;20216;-82
2023/05/29 08:28:18;;;;;;;0.10;0.10;;;22.50;99.90;;;;;;5044550;28;20204;-82
2023/05/29 08:30:44;;;;;;;4.00;3.60;;;22.10;99.90;;;;;;5038900;28;20713;-82
2023/05/29 08:33:09;;;;;;;0.10;0.10;;;22.20;99.90;;;;;;5045433;28;20233;-82
2023/05/29 08:35:35;;;;;;;0.10;0.10;;;22.40;99.90;;;;;;5045824;28;20193;-82
2023/05/29 08:38:01;;;;;;;0.10;0.10;;;22.50;99.90;;;;;;5048765;28;20186;-81
2023/05/29 08:40:26;;;;;;;0.10;0.10;;;22.70;99.90;;;;;;5045364;28;20181;-81
2023/05/29 08:43:10;;;;;;;0.10;0.10;;;22.90;99.90;;;;;;5048355;28;20209;-81
2023/05/29 08:45:43;;;;;;;0.10;0.10;;;22.60;99.90;;;;;;5043337;28;20300;-82
2023/05/29 08:48:10;;;;;;;0.10;0.10;;;22.60;99.90;;;;;;5045342;28;20178;-81
2023/05/29 08:50:42;;;;;;;0.10;0.10;;;22.70;99.90;;;;;;5049995;28;20184;-81
2023/05/29 08:53:10;;;;;;;0.10;0.10;;;23.40;99.90;;;;;;5047478;28;20208;-81
2023/05/29 08:55:35;;;;;;;0.10;0.10;;;23.60;99.90;;;;;;5043698;28;20220;-82
2023/05/29 08:58:01;;;;;;;0.10;0.10;;;23.80;99.90;;;;;;5048725;28;20213;-82
2023/05/29 09:00:29;;;;;;;0.10;0.10;;;23.50;99.90;;;;;;5046487;28;20190;-82
2023/05/29 09:02:55;;;;;;;0.10;0.10;;;23.80;99.90;;;;;;5044570;28;20297;-82
2023/05/29 09:05:21;;;;;;;0.10;0.10;;;23.50;99.90;;;;;;5047988;28;20686;-82
2023/05/29 09:07:49;;;;;;;0.10;0.10;;;23.50;99.90;;;;;;5042814;28;20186;-83
2023/05/29 09:10:15;;;;;;;0.10;0.10;;;23.60;99.90;;;;;;5046169;28;20206;-82
2023/05/29 09:12:41;;;;;;;0.10;0.10;;;23.70;99.90;;;;;;5047182;28;20225;-82
2023/05/29 09:15:27;;;;;;;0.10;0.10;;;24.10;99.90;;;;;;5048003;28;20251;-82
2023/05/29 09:17:54;;;;;;;0.10;0.10;;;24.40;99.90;;;;;;5044066;28;20191;-82
2023/05/29 09:20:24;;;;;;;0.10;0.10;;;24.90;99.90;;;;;;5047758;28;20182;-82
2023/05/29 09:23:01;;;;;;;0.10;0.10;;;25.00;99.90;;;;;;5043896;28;20206;-82
2023/05/29 09:25:32;;;;;;;0.67;0.67;;;24.50;99.90;;;;;;5044022;28;20225;-82
2023/05/29 09:28:07;;;;;;;0.10;0.10;;;24.10;99.90;;;;;;5043957;28;20182;-82
2023/05/29 09:30:39;;;;;;;0.10;0.10;;;24.00;99.90;;;;;;5044952;28;20272;-82
2023/05/29 09:33:06;;;;;;;0.10;0.10;;;23.90;99.90;;;;;;5045723;28;20934;-82
2023/05/29 09:35:40;;;;;;;0.10;0.10;;;24.20;99.90;;;;;;5044450;28;20233;-83
2023/05/29 09:38:10;;;;;;;0.10;0.10;;;23.80;99.90;;;;;;5044862;28;20182;-83
2023/05/29 09:40:37;;;;;;;0.10;0.10;;;24.50;99.90;;;;;;5045438;28;20192;-83
2023/05/29 09:43:10;;;;;;;0.10;0.10;;;24.30;99.90;;;;;;5044970;28;20198;-82
2023/05/29 09:45:40;;;;;;;0.10;0.10;;;24.50;99.90;;;;;;5045923;28;20301;-83
2023/05/29 09:48:16;;;;;;;0.10;0.10;;;24.50;99.90;;;;;;5046714;28;20227;-83
2023/05/29 09:50:49;;;;;;;0.10;0.10;;;24.50;99.90;;;;;;5044232;28;20173;-83
2023/05/29 09:53:24;;;;;;;0.10;0.10;;;24.30;99.90;;;;;;5045111;28;20274;-82
2023/05/29 09:55:50;;;;;;;0.10;0.10;;;24.90;99.90;;;;;;5047685;28;20300;-83
2023/05/29 09:58:17;;;;;;;0.10;0.10;;;25.10;99.90;;;;;;5045924;28;20270;-83
2023/05/29 10:00:44;;;;;;;0.10;0.10;;;24.90;99.90;;;;;;5044433;28;20182;-83
2023/05/29 10:03:13;;;;;;;0.10;0.10;;;24.80;99.90;;;;;;5054998;28;20199;-84
2023/05/29 10:05:43;;;;;;;0.10;0.10;;;24.20;99.90;;;;;;5052009;28;20233;-82
2023/05/29 10:08:13;;;;;;;0.10;0.10;;;24.00;99.90;;;;;;5051299;28;20809;-82
2023/05/29 10:10:46;;;;;;;0.10;0.10;;;24.10;99.90;;;;;;5041157;28;20243;-82
2023/05/29 10:13:13;;;;;;;0.10;0.10;;;24.30;99.90;;;;;;5037747;28;20202;-82
2023/05/29 10:15:45;;;;;;;0.10;0.10;;;24.70;99.90;;;;;;5043293;28;20185;-83
2023/05/29 10:18:36;;;;;;;0.10;0.10;;;24.40;99.90;;;;;;5041517;28;20190;-83
2023/05/29 10:21:02;;;;;;;0.10;0.10;;;24.30;99.90;;;;;;5044353;28;20197;-83
2023/05/29 10:23:29;;;;;;;0.10;0.10;;;24.60;99.90;;;;;;5042805;28;20217;-83
2023/05/29 10:26:15;;;;;;;0.10;0.10;;;24.70;99.90;;;;;;5042514;28;20216;-83
2023/05/29 10:28:46;;;;;;;0.10;0.10;;;24.90;99.90;;;;;;5042354;28;21345;-83
2023/05/29 10:31:20;;;;;;;0.10;0.10;;;25.40;99.90;;;;;;5040679;28;20238;-83
2023/05/29 10:34:23;;;;;;;0.10;0.10;;;25.00;99.90;;;;;;5042097;28;20205;-83
2023/05/29 10:37:02;;;;;;;0.10;0.10;;;25.10;99.90;;;;;;5043171;28;20618;-83
2023/05/29 10:39:27;;;;;;;0.10;0.10;;;25.00;99.90;;;;;;5041867;28;20185;-83
2023/05/29 10:41:58;;;;;;;0.10;0.10;;;25.10;99.90;;;;;;5040062;28;20551;-83
2023/05/29 10:44:41;;;;;;;0.30;0.30;;;25.00;99.90;;;;;;5043421;28;20251;-83
2023/05/29 10:47:08;;;;;;;0.10;0.10;;;24.70;99.90;;;;;;5042036;28;20193;-83
2023/05/29 10:49:34;;;;;;;0.10;0.10;;;24.50;99.90;;;;;;5043237;28;20378;-83
2023/05/29 10:52:00;;;;;;;0.10;0.10;;;24.40;99.90;;;;;;5045094;28;20264;-83
2023/05/29 10:54:26;;;;;;;0.10;0.10;;;24.70;99.90;;;;;;5042845;28;20228;-83
2023/05/29 10:57:01;;;;;;;0.10;0.10;;;24.70;99.90;;;;;;5043304;28;20185;-83
2023/05/29 10:59:27;;;;;;;0.10;0.10;;;24.60;99.90;;;;;;5044242;28;20224;-83
2023/05/29 11:01:54;;;;;;;0.10;0.10;;;24.70;99.90;;;;;;5041599;28;20193;-83
2023/05/29 11:04:20;;;;;;;0.10;0.10;;;24.80;99.90;;;;;;5042060;28;20635;-83
2023/05/29 11:06:46;;;;;;;0.10;0.10;;;25.00;99.90;;;;;;5045518;28;20282;-83
2023/05/29 11:09:30;;;;;;;0.10;0.10;;;25.20;99.90;;;;;;5053542;28;20528;-85
2023/05/29 11:12:11;;;;;;;0.10;0.10;;;25.10;99.90;;;;;;5044262;28;20197;-82
2023/05/29 11:15:02;;;;;;;0.10;0.10;;;25.00;99.90;;;;;;5037776;28;20780;-83
2023/05/29 11:17:46;;;;;;;0.10;0.10;;;25.10;99.90;;;;;;5039947;28;20247;-83
2023/05/29 11:20:34;;;;;;;0.10;0.10;;;24.90;99.90;;;;;;5041391;28;20658;-82
2023/05/29 11:23:07;;;;;;;0.10;0.10;;;24.60;99.90;;;;;;5041154;28;20749;-82
2023/05/29 11:25:35;;;;;;;0.10;0.10;;;24.40;99.90;;;;;;5037964;28;20205;-82
2023/05/29 11:28:04;;;;;;;0.10;0.10;;;24.80;99.90;;;;;;5042555;28;20272;-82
2023/05/29 11:30:30;;;;;;;0.10;0.10;;;25.30;99.90;;;;;;5043698;28;20185;-82
2023/05/29 11:33:05;;;;;;;0.37;0.37;;;25.10;99.90;;;;;;5039795;28;20206;-82
2023/05/29 11:35:32;;;;;;;0.10;0.10;;;25.50;99.90;;;;;;5044204;28;20650;-82
2023/05/29 11:38:00;;;;;;;0.10;0.10;;;25.20;99.90;;;;;;5041740;28;20204;-82
2023/05/29 11:40:26;;;;;;;0.10;0.10;;;25.40;99.90;;;;;;5041270;28;20625;-82
2023/05/29 11:42:52;;;;;;;0.10;0.10;;;25.50;99.90;;;;;;5045337;28;20252;-82
2023/05/29 11:45:20;;;;;;;0.10;0.10;;;25.20;99.90;;;;;;5042541;28;20697;-82
2023/05/29 11:47:58;;;;;;;0.10;0.10;;;25.60;99.90;;;;;;5038948;28;20189;-82
2023/05/29 11:50:29;;;;;;;0.10;0.10;;;26.00;99.90;;;;;;5042640;28;20190;-82
2023/05/29 11:52:56;;;;;;;0.10;0.10;;;26.60;99.90;;;;;;5042543;28;20201;-82
2023/05/29 11:55:23;;;;;;;0.10;0.10;;;25.90;99.90;;;;;;5039923;28;20280;-82
2023/05/29 11:57:58;;;;;;;0.10;0.10;;;26.20;99.90;;;;;;5042585;28;20218;-82
2023/05/29 12:00:24;;;;;;;0.10;0.10;;;25.90;99.90;;;;;;5042757;28;20207;-82
2023/05/29 12:02:51;;;;;;;0.10;0.10;;;25.90;99.90;;;;;;5041929;28;20686;-82
2023/05/29 12:05:21;;;;;;;0.10;0.10;;;25.70;99.90;;;;;;5051890;28;20248;-82
2023/05/29 12:07:56;;;;;;;0.10;0.10;;;25.90;99.90;;;;;;5042562;28;20196;-82
2023/05/29 12:10:22;;;;;;;0.10;0.10;;;25.70;99.90;;;;;;5041466;28;20184;-82
2023/05/29 12:12:59;;;;;;;0.10;0.10;;;25.70;99.90;;;;;;5041630;28;20796;-82
2023/05/29 12:15:25;;;;;;;0.10;0.10;;;25.70;99.90;;;;;;5044087;28;20605;-82
2023/05/29 12:17:51;;;;;;;0.10;0.10;;;25.80;99.90;;;;;;5043188;28;20205;-82
2023/05/29 12:20:18;;;;;;;2.63;2.33;;;26.00;99.90;;;;;;5041716;28;20192;-82
2023/05/29 12:22:45;;;;;;;0.10;0.10;;;25.70;99.90;;;;;;5044568;28;20212;-82
2023/05/29 12:25:13;;;;;;;0.10;0.10;;;25.70;99.90;;;;;;5041886;28;20201;-82
2023/05/29 12:27:42;;;;;;;0.10;0.10;;;25.40;99.90;;;;;;5042694;28;20185;-82
2023/05/29 12:30:16;;;;;;;0.10;0.10;;;25.50;99.90;;;;;;5042653;28;20182;-82
2023/05/29 12:32:45;;;;;;;0.10;0.10;;;25.80;99.90;;;;;;5058793;28;20227;-82
2023/05/29 12:35:21;;;;;;;0.10;0.10;;;26.30;99.90;;;;;;5041960;28;20194;-82
2023/05/29 12:37:53;;;;;;;0.10;0.10;;;25.80;99.90;;;;;;5038826;28;20185;-82
2023/05/29 12:40:25;;;;;;;0.10;0.10;;;25.80;99.90;;;;;;5039587;28;21107;-82
2023/05/29 12:42:59;;;;;;;0.10;0.10;;;26.00;99.90;;;;;;5041020;28;20305;-82
2023/05/29 12:45:27;;;;;;;0.10;0.10;;;25.90;99.90;;;;;;5042552;28;20221;-82
2023/05/29 12:47:57;;;;;;;0.10;0.10;;;25.70;99.90;;;;;;5043548;28;20771;-82
2023/05/29 12:50:26;;;;;;;0.10;0.10;;;25.90;99.90;;;;;;5041456;28;20265;-82
2023/05/29 12:53:00;;;;;;;0.10;0.10;;;25.90;99.90;;;;;;5040061;28;20322;-82